Sanuki Maru — JG5378 — position and weather

sailwx.info

Track history (hours):
 
Tides and Currents Weather Stations Pressure Air Temp Water Temp Dewpoint Dewpoint Depression Visibility Wind Speed Wind Dir Waves Ship Positions

Sanuki Maru

Last reported at 2018-Apr-22 00:23 UTC. Time now 2018-Apr-25 14:12 UTC.
Position N 35°25' E 139°41'.

Length 36 m; draft 3.8 m.

Type: Tug. MMSI: 431100769.

Date/timePositionNaut miles runAvg speedWind from/ knotsBaromVisibWave heightAir tempDewpointWater temp
2018-Apr-22 00:23N 35°25' E 139°41'3 8.6
2018-Apr-22 00:00N 35°26' E 139°44'612.5
2018-Apr-21 23:30N 35°23' E 139°51'3 5.0
2018-Apr-21 23:00N 35°22' E 139°54'1 1.2
2018-Apr-21 22:30N 35°22' E 139°53'1 2.7
2018-Apr-21 22:01N 35°23' E 139°51'2 4.0
2018-Apr-21 21:30N 35°23' E 139°49'1 2.7
2018-Apr-21 21:00N 35°23' E 139°47'0 0.6
2018-Apr-21 20:30N 35°23' E 139°47'0 0.9
2018-Apr-21 20:00N 35°23' E 139°47'1 1.6
2018-Apr-21 19:30N 35°23' E 139°47'1 1.9
2018-Apr-21 19:00N 35°23' E 139°48'1 2.6
2018-Apr-21 18:30N 35°24' E 139°47'1 1.8
2018-Apr-21 18:00N 35°24' E 139°46'2 4.8
2018-Apr-21 17:30N 35°22' E 139°45'2 4.9
2018-Apr-21 17:00N 35°20' E 139°44'2 4.1
2018-Apr-21 16:30N 35°18' E 139°45'2 4.5
2018-Apr-21 16:00N 35°16' E 139°47'2 4.1
2018-Apr-21 15:30N 35°14' E 139°47'2 3.8
2018-Apr-21 15:00N 35°12' E 139°47'1 2.7
2018-Apr-21 14:30N 35°11' E 139°47'1 2.9
2018-Apr-21 14:00N 35°09' E 139°46'1 3.0
2018-Apr-21 13:30N 35°08' E 139°46'1 2.6
2018-Apr-21 13:01N 35°06' E 139°46'1 1.5
2018-Apr-21 12:30N 35°07' E 139°47'1 1.7
2018-Apr-21 12:00N 35°08' E 139°47'0 0.8
2018-Apr-21 11:30N 35°08' E 139°47'2 3.4
2018-Apr-21 11:00N 35°06' E 139°47'2 3.4
2018-Apr-21 10:30N 35°05' E 139°47'2 3.6
2018-Apr-21 10:00N 35°03' E 139°47'2 3.6
2018-Apr-21 09:30N 35°01' E 139°46'1 2.8
2018-Apr-21 09:00N 35°01' E 139°45'3 5.5
2018-Apr-21 08:29N 34°58' E 139°43'5 4.6
2018-Apr-21 07:24N 34°54' E 139°45'2 4.3
2018-Apr-21 06:58N 34°53' E 139°47'2 4.7
2018-Apr-21 06:26N 34°52' E 139°50'14 3.2
2018-Apr-21 02:07N 34°57' E 140°06'0 3.1
2018-Apr-21 01:59N 34°58' E 140°06'  
2018-Apr-18 08:54N 35°01' E 140°12'512.0
2018-Apr-18 08:26N 34°58' E 140°07'1511.8
2018-Apr-18 07:13N 34°52' E 139°51'311.2
2018-Apr-18 06:59N 34°53' E 139°48'511.0
2018-Apr-18 06:30N 34°57' E 139°43'612.2
2018-Apr-18 06:00N 35°03' E 139°44'613.3
2018-Apr-18 05:30N 35°10' E 139°45'612.1
2018-Apr-18 05:00N 35°16' E 139°45'611.4
2018-Apr-18 04:31N 35°21' E 139°42'611.6
2018-Apr-18 04:01N 35°26' E 139°44'612.5
2018-Apr-18 03:30N 35°30' E 139°50'5 8.7
2018-Apr-18 02:57N 35°34' E 139°54'1 3.1
2018-Apr-18 02:30N 35°33' E 139°53'2 3.5
2018-Apr-18 02:00N 35°33' E 139°50'3 5.5
2018-Apr-18 01:30N 35°35' E 139°48'3 5.1
2018-Apr-18 01:01N 35°37' E 139°46'0 0.4
2018-Apr-18 00:30N 35°37' E 139°46'0 0.5
2018-Apr-18 00:01N 35°37' E 139°46'612.1
2018-Apr-17 23:30N 35°33' E 139°52'611.3
2018-Apr-17 23:00N 35°27' E 139°51'510.0
2018-Apr-17 22:30N 35°22' E 139°53'0 0.7
2018-Apr-17 22:00N 35°22' E 139°53'0 0.0
2018-Apr-17 21:30N 35°22' E 139°53'0 0.0
2018-Apr-17 21:00N 35°22' E 139°53'0 0.0
2018-Apr-17 20:30N 35°22' E 139°53'0 0.0
2018-Apr-17 20:00N 35°22' E 139°53'0 0.0
2018-Apr-17 19:30N 35°22' E 139°53'0 0.0
2018-Apr-17 19:01N 35°22' E 139°53'0 0.0
2018-Apr-17 18:30N 35°22' E 139°53'0 0.0
2018-Apr-17 18:00N 35°22' E 139°53'0 0.0
2018-Apr-17 17:30N 35°22' E 139°53'0 0.0
2018-Apr-17 17:00N 35°22' E 139°53'0 0.0
2018-Apr-17 16:30N 35°22' E 139°53'0 1.0
2018-Apr-17 16:00N 35°22' E 139°52'0 0.0
2018-Apr-17 15:30N 35°22' E 139°52'0 0.9
2018-Apr-17 15:00N 35°22' E 139°52'2 5.0
2018-Apr-17 14:30N 35°24' E 139°49'1 1.8
2018-Apr-17 14:01N 35°24' E 139°49'0 0.3
2018-Apr-17 13:31N 35°24' E 139°48'0 0.7
2018-Apr-17 13:00N 35°24' E 139°49'0 0.7
2018-Apr-17 12:30N 35°24' E 139°49'2 4.6
2018-Apr-17 12:00N 35°23' E 139°51'1 2.0
2018-Apr-17 11:30N 35°22' E 139°52'2 3.1
2018-Apr-17 11:01N 35°23' E 139°51'1 2.6
2018-Apr-17 10:31N 35°21' E 139°51'2 3.9
2018-Apr-17 10:00N 35°23' E 139°49'0 0.3
2018-Apr-17 09:30N 35°23' E 139°49'2 3.9
2018-Apr-17 09:01N 35°24' E 139°48'611.0
2018-Apr-17 08:31N 35°25' E 139°41'0 0.7
2018-Apr-17 08:00N 35°25' E 139°41'0 0.0
2018-Apr-17 07:31N 35°25' E 139°41'0 0.1
2018-Apr-17 07:01N 35°25' E 139°41'0 0.0
2018-Apr-17 06:30N 35°25' E 139°41'0 0.2
2018-Apr-17 06:01N 35°25' E 139°41'0 0.4
2018-Apr-17 05:31N 35°25' E 139°41'0 0.2
2018-Apr-17 05:01N 35°25' E 139°41'0 0.0
2018-Apr-17 04:31N 35°25' E 139°41'0 0.1
2018-Apr-17 04:00N 35°25' E 139°41'0 0.0
2018-Apr-17 03:31N 35°25' E 139°41'0 0.0
2018-Apr-17 03:01N 35°25' E 139°41'0 0.0
2018-Apr-17 02:31N 35°25' E 139°41'0 0.0
2018-Apr-17 02:01N 35°25' E 139°41'0 0.0
2018-Apr-17 01:30N 35°25' E 139°41'0 0.0
2018-Apr-17 01:00N 35°25' E 139°41'0 0.0
2018-Apr-17 00:30N 35°25' E 139°41'0 0.0
2018-Apr-17 00:00N 35°25' E 139°41'0 0.0
2018-Apr-16 23:31N 35°25' E 139°41'1 1.9
2018-Apr-16 23:01N 35°26' E 139°42'1 0.1
2018-Apr-16 03:20N 35°25' E 139°41'0 0.6
2018-Apr-16 03:01N 35°25' E 139°41'0 0.0
2018-Apr-16 02:30N 35°25' E 139°41'0 0.0
2018-Apr-16 02:00N 35°25' E 139°41'0 0.0
2018-Apr-16 01:31N 35°25' E 139°41'2 3.0
2018-Apr-16 01:00N 35°24' E 139°41'3 5.6
2018-Apr-16 00:30N 35°25' E 139°44'3 5.2
2018-Apr-16 00:01N 35°27' E 139°47'3 6.1
2018-Apr-15 23:30N 35°29' E 139°49'3 5.6
2018-Apr-15 23:00N 35°30' E 139°53'3 5.6
2018-Apr-15 22:28N 35°29' E 139°56'2 4.6
2018-Apr-15 22:00N 35°28' E 139°58'1 1.5
2018-Apr-15 21:30N 35°27' E 139°57'3 5.5
2018-Apr-15 21:00N 35°28' E 139°54'612.0
2018-Apr-15 20:31N 35°25' E 139°48'510.7
2018-Apr-15 20:01N 35°25' E 139°41'0 0.3
2018-Apr-15 19:30N 35°25' E 139°41'0 0.0
2018-Apr-15 19:01N 35°25' E 139°41'0 0.0
2018-Apr-15 18:31N 35°25' E 139°41'0 0.0
2018-Apr-15 18:00N 35°25' E 139°41'0 0.0
2018-Apr-15 17:30N 35°25' E 139°41'0 0.0
2018-Apr-15 17:01N 35°25' E 139°41'0 0.0
2018-Apr-15 16:30N 35°25' E 139°41'0 0.0
2018-Apr-15 16:01N 35°25' E 139°41'0 0.0
2018-Apr-15 15:30N 35°25' E 139°41'0 0.0
2018-Apr-15 15:01N 35°25' E 139°41'0 0.0
2018-Apr-15 14:30N 35°25' E 139°41'0 0.0
2018-Apr-15 14:00N 35°25' E 139°41'0 0.0
2018-Apr-15 13:31N 35°25' E 139°41'0 0.0
2018-Apr-15 13:01N 35°25' E 139°41'0 0.0
2018-Apr-15 12:30N 35°25' E 139°41'0 0.0
2018-Apr-15 12:00N 35°25' E 139°41'0 0.0
2018-Apr-15 11:30N 35°25' E 139°41'0 0.0
2018-Apr-15 11:01N 35°25' E 139°41'0 0.0
2018-Apr-15 10:30N 35°25' E 139°41'0 0.0
2018-Apr-15 10:00N 35°25' E 139°41'0 0.0
2018-Apr-15 09:31N 35°25' E 139°41'0 0.0
2018-Apr-15 09:01N 35°25' E 139°41'0 0.0
2018-Apr-15 08:30N 35°25' E 139°41'0 0.0
2018-Apr-15 08:00N 35°25' E 139°41'0 0.0
2018-Apr-15 07:31N 35°25' E 139°41'0 0.0
2018-Apr-15 07:00N 35°25' E 139°41'0 0.0
2018-Apr-15 06:30N 35°25' E 139°41'1 2.1
2018-Apr-15 06:00N 35°24' E 139°42'3 5.2
2018-Apr-15 05:31N 35°24' E 139°39'0 0.6
2018-Apr-15 05:00N 35°24' E 139°39'0 0.0
2018-Apr-15 04:31N 35°24' E 139°39'0 0.0
2018-Apr-15 04:00N 35°24' E 139°39'0 0.0
2018-Apr-15 03:30N 35°24' E 139°39'0 0.0
2018-Apr-15 03:00N 35°24' E 139°39'0 0.0
2018-Apr-15 02:30N 35°24' E 139°39'0 0.0
2018-Apr-15 02:01N 35°24' E 139°39'0 0.0
2018-Apr-15 01:31N 35°24' E 139°39'0 0.0
2018-Apr-15 01:01N 35°24' E 139°39'0 0.0
2018-Apr-15 00:31N 35°24' E 139°39'0 0.0
2018-Apr-15 00:00N 35°24' E 139°39'0 0.0
2018-Apr-14 23:30N 35°24' E 139°39'0 0.0
2018-Apr-14 23:00N 35°24' E 139°39'0 0.0
2018-Apr-14 22:30N 35°24' E 139°39'0 0.0
2018-Apr-14 22:00N 35°24' E 139°39'0 0.1
2018-Apr-14 21:30N 35°24' E 139°39'0 0.0
2018-Apr-14 21:00N 35°24' E 139°39'0 0.0
2018-Apr-14 20:30N 35°24' E 139°39'0 0.0
2018-Apr-14 20:00N 35°24' E 139°39'0 0.0
2018-Apr-14 19:31N 35°24' E 139°39'0 0.0
2018-Apr-14 19:00N 35°24' E 139°39'0 0.0
2018-Apr-14 18:30N 35°24' E 139°39'0 0.0
2018-Apr-14 18:01N 35°24' E 139°39'0 0.0
2018-Apr-14 17:30N 35°24' E 139°39'0 0.0
2018-Apr-14 17:00N 35°24' E 139°39'0 0.0
2018-Apr-14 16:30N 35°24' E 139°39'0 0.0
2018-Apr-14 16:00N 35°24' E 139°39'1 2.4
2018-Apr-14 15:31N 35°24' E 139°40'2 0.1
2018-Apr-14 00:51N 35°25' E 139°41'2 4.6
2018-Apr-14 00:30N 35°23' E 139°41'2 4.7
2018-Apr-14 00:01N 35°21' E 139°40'4 7.4
2018-Apr-13 23:30N 35°25' E 139°41'0 0.0
2018-Apr-13 23:00N 35°25' E 139°41'0 0.0
2018-Apr-13 22:31N 35°25' E 139°41'0 0.0
2018-Apr-13 22:00N 35°25' E 139°41'0 0.0
2018-Apr-13 21:30N 35°25' E 139°41'0 0.0
2018-Apr-13 21:01N 35°25' E 139°41'0 0.0
2018-Apr-13 20:01N 35°25' E 139°41'0 0.0
2018-Apr-13 19:29N 35°25' E 139°41'0 0.0
2018-Apr-13 19:00N 35°25' E 139°41'0 0.0
2018-Apr-13 18:30N 35°25' E 139°41'0 0.0
2018-Apr-13 18:00N 35°25' E 139°41'0 0.0
2018-Apr-13 17:30N 35°25' E 139°41'0 0.0
2018-Apr-13 16:30N 35°25' E 139°41'0 0.0
2018-Apr-13 16:00N 35°25' E 139°41'0 0.0
2018-Apr-13 15:30N 35°25' E 139°41'0 0.0
2018-Apr-13 15:00N 35°25' E 139°41'0 0.0
2018-Apr-13 14:30N 35°25' E 139°41'0 0.0
2018-Apr-13 14:00N 35°25' E 139°41'0 0.0
2018-Apr-13 13:30N 35°25' E 139°41'0 0.0
2018-Apr-13 12:30N 35°25' E 139°41'0 0.0
2018-Apr-13 12:00N 35°25' E 139°41'0 0.0
2018-Apr-13 11:30N 35°25' E 139°41'0 0.0
2018-Apr-13 10:30N 35°25' E 139°41'0 0.0
2018-Apr-13 10:00N 35°25' E 139°41'0 0.0
2018-Apr-13 09:30N 35°25' E 139°41'0 0.0
2018-Apr-13 09:00N 35°25' E 139°41'0 0.0
2018-Apr-13 08:30N 35°25' E 139°41'5 9.5
2018-Apr-13 08:00N 35°20' E 139°40'2 4.2
2018-Apr-13 07:30N 35°22' E 139°41'3 5.3
2018-Apr-13 07:00N 35°23' E 139°44'3 6.1
2018-Apr-13 06:30N 35°21' E 139°48'2 4.4
2018-Apr-13 06:01N 35°20' E 139°49'0 0.2
2018-Apr-13 05:30N 35°20' E 139°50'0 0.4
2018-Apr-13 05:00N 35°20' E 139°50'0 0.0
2018-Apr-13 04:30N 35°20' E 139°50'0 0.1
2018-Apr-13 04:00N 35°20' E 139°50'0 0.0
2018-Apr-13 03:30N 35°20' E 139°50'0 0.0
2018-Apr-13 03:00N 35°20' E 139°50'0 0.0
2018-Apr-13 02:30N 35°20' E 139°50'0 0.0
2018-Apr-13 02:01N 35°20' E 139°50'0 0.2
2018-Apr-13 01:30N 35°20' E 139°50'2 3.5
2018-Apr-13 01:01N 35°21' E 139°49'1 2.7
2018-Apr-13 00:30N 35°21' E 139°51'0 0.7
2018-Apr-13 00:00N 35°21' E 139°51'0 0.2
2018-Apr-12 23:30N 35°22' E 139°51'0 0.0
2018-Apr-12 23:01N 35°22' E 139°51'0 0.1
2018-Apr-12 22:30N 35°21' E 139°51'1 1.5
2018-Apr-12 22:00N 35°22' E 139°50'2 3.7
2018-Apr-12 21:30N 35°22' E 139°48'1 2.5
2018-Apr-12 21:01N 35°22' E 139°47'1 2.7
2018-Apr-12 20:31N 35°22' E 139°48'3 6.8
2018-Apr-12 20:00N 35°22' E 139°52'0 0.0
2018-Apr-12 19:30N 35°22' E 139°52'0 0.0
2018-Apr-12 19:00N 35°22' E 139°52'0 0.1
2018-Apr-12 18:30N 35°22' E 139°52'0 0.0
2018-Apr-12 18:00N 35°22' E 139°52'0 0.0
2018-Apr-12 17:30N 35°22' E 139°52'0 0.0
2018-Apr-12 17:00N 35°22' E 139°52'0 0.0
2018-Apr-12 16:30N 35°22' E 139°52'0 0.0
2018-Apr-12 16:00N 35°22' E 139°52'0 0.0
2018-Apr-12 15:30N 35°22' E 139°52'0 0.0
2018-Apr-12 15:00N 35°22' E 139°52'0 0.0
2018-Apr-12 14:29N 35°22' E 139°52'0 0.0
2018-Apr-12 14:00N 35°22' E 139°52'0 0.1
2018-Apr-12 13:30N 35°22' E 139°52'0 0.9
2018-Apr-12 12:59N 35°22' E 139°52'0 0.2
2018-Apr-12 12:30N 35°22' E 139°52'1 1.4
2018-Apr-12 12:00N 35°22' E 139°51'3 5.5
2018-Apr-12 11:30N 35°24' E 139°49'1 1.5
2018-Apr-12 11:00N 35°24' E 139°48'2 4.9
2018-Apr-12 10:30N 35°22' E 139°49'0 0.0
2018-Apr-12 10:00N 35°22' E 139°49'0 0.0
2018-Apr-12 09:30N 35°22' E 139°49'0 0.0
2018-Apr-12 09:00N 35°22' E 139°49'0 0.0
2018-Apr-12 08:30N 35°22' E 139°49'0 0.0
2018-Apr-12 08:00N 35°22' E 139°49'0 0.0
2018-Apr-12 07:30N 35°22' E 139°49'2 4.6
2018-Apr-12 07:00N 35°22' E 139°46'2 4.8
2018-Apr-12 06:30N 35°23' E 139°44'3 5.4
2018-Apr-12 06:01N 35°23' E 139°40'2 4.0
2018-Apr-12 05:30N 35°23' E 139°38'0 0.3
2018-Apr-12 05:01N 35°23' E 139°38'1 2.4
2018-Apr-12 04:30N 35°23' E 139°39'0 0.1
2018-Apr-12 04:01N 35°23' E 139°39'0 0.0
2018-Apr-12 03:30N 35°23' E 139°39'0 0.0
2018-Apr-12 03:00N 35°23' E 139°39'0 0.0
2018-Apr-12 02:31N 35°23' E 139°39'0 0.0
2018-Apr-12 02:00N 35°23' E 139°39'0 0.1
2018-Apr-12 01:31N 35°23' E 139°39'0 0.0
2018-Apr-12 01:00N 35°23' E 139°39'1 1.9
2018-Apr-12 00:30N 35°23' E 139°41'  
Track history (hours):
 
Tides and Currents Weather Stations Pressure Air Temp Water Temp Dewpoint Dewpoint Depression Visibility Wind Speed Wind Dir Waves Ship Positions

Sanuki Maru

Last reported at 2018-Apr-22 00:23 UTC. Time now 2018-Apr-25 14:12 UTC.
Position N 35°25' E 139°41'.

Length 36 m; draft 3.8 m.

Type: Tug. MMSI: 431100769.

Date/timePositionNaut miles runAvg speedWind from/ knotsBaromVisibWave heightAir tempDewpointWater temp
2018-Apr-22 00:23N 35°25' E 139°41'3 8.6
2018-Apr-22 00:00N 35°26' E 139°44'612.5
2018-Apr-21 23:30N 35°23' E 139°51'3 5.0
2018-Apr-21 23:00N 35°22' E 139°54'1 1.2
2018-Apr-21 22:30N 35°22' E 139°53'1 2.7
2018-Apr-21 22:01N 35°23' E 139°51'2 4.0
2018-Apr-21 21:30N 35°23' E 139°49'1 2.7
2018-Apr-21 21:00N 35°23' E 139°47'0 0.6
2018-Apr-21 20:30N 35°23' E 139°47'0 0.9
2018-Apr-21 20:00N 35°23' E 139°47'1 1.6
2018-Apr-21 19:30N 35°23' E 139°47'1 1.9
2018-Apr-21 19:00N 35°23' E 139°48'1 2.6
2018-Apr-21 18:30N 35°24' E 139°47'1 1.8
2018-Apr-21 18:00N 35°24' E 139°46'2 4.8
2018-Apr-21 17:30N 35°22' E 139°45'2 4.9
2018-Apr-21 17:00N 35°20' E 139°44'2 4.1
2018-Apr-21 16:30N 35°18' E 139°45'2 4.5
2018-Apr-21 16:00N 35°16' E 139°47'2 4.1
2018-Apr-21 15:30N 35°14' E 139°47'2 3.8
2018-Apr-21 15:00N 35°12' E 139°47'1 2.7
2018-Apr-21 14:30N 35°11' E 139°47'1 2.9
2018-Apr-21 14:00N 35°09' E 139°46'1 3.0
2018-Apr-21 13:30N 35°08' E 139°46'1 2.6
2018-Apr-21 13:01N 35°06' E 139°46'1 1.5
2018-Apr-21 12:30N 35°07' E 139°47'1 1.7
2018-Apr-21 12:00N 35°08' E 139°47'0 0.8
2018-Apr-21 11:30N 35°08' E 139°47'2 3.4
2018-Apr-21 11:00N 35°06' E 139°47'2 3.4
2018-Apr-21 10:30N 35°05' E 139°47'2 3.6
2018-Apr-21 10:00N 35°03' E 139°47'2 3.6
2018-Apr-21 09:30N 35°01' E 139°46'1 2.8
2018-Apr-21 09:00N 35°01' E 139°45'3 5.5
2018-Apr-21 08:29N 34°58' E 139°43'5 4.6
2018-Apr-21 07:24N 34°54' E 139°45'2 4.3
2018-Apr-21 06:58N 34°53' E 139°47'2 4.7
2018-Apr-21 06:26N 34°52' E 139°50'14 3.2
2018-Apr-21 02:07N 34°57' E 140°06'0 3.1
2018-Apr-21 01:59N 34°58' E 140°06'  
2018-Apr-18 08:54N 35°01' E 140°12'512.0
2018-Apr-18 08:26N 34°58' E 140°07'1511.8
2018-Apr-18 07:13N 34°52' E 139°51'311.2
2018-Apr-18 06:59N 34°53' E 139°48'511.0
2018-Apr-18 06:30N 34°57' E 139°43'612.2
2018-Apr-18 06:00N 35°03' E 139°44'613.3
2018-Apr-18 05:30N 35°10' E 139°45'612.1
2018-Apr-18 05:00N 35°16' E 139°45'611.4
2018-Apr-18 04:31N 35°21' E 139°42'611.6
2018-Apr-18 04:01N 35°26' E 139°44'612.5
2018-Apr-18 03:30N 35°30' E 139°50'5 8.7
2018-Apr-18 02:57N 35°34' E 139°54'1 3.1
2018-Apr-18 02:30N 35°33' E 139°53'2 3.5
2018-Apr-18 02:00N 35°33' E 139°50'3 5.5
2018-Apr-18 01:30N 35°35' E 139°48'3 5.1
2018-Apr-18 01:01N 35°37' E 139°46'0 0.4
2018-Apr-18 00:30N 35°37' E 139°46'0 0.5
2018-Apr-18 00:01N 35°37' E 139°46'612.1
2018-Apr-17 23:30N 35°33' E 139°52'611.3
2018-Apr-17 23:00N 35°27' E 139°51'510.0
2018-Apr-17 22:30N 35°22' E 139°53'0 0.7
2018-Apr-17 22:00N 35°22' E 139°53'0 0.0
2018-Apr-17 21:30N 35°22' E 139°53'0 0.0
2018-Apr-17 21:00N 35°22' E 139°53'0 0.0
2018-Apr-17 20:30N 35°22' E 139°53'0 0.0
2018-Apr-17 20:00N 35°22' E 139°53'0 0.0
2018-Apr-17 19:30N 35°22' E 139°53'0 0.0
2018-Apr-17 19:01N 35°22' E 139°53'0 0.0
2018-Apr-17 18:30N 35°22' E 139°53'0 0.0
2018-Apr-17 18:00N 35°22' E 139°53'0 0.0
2018-Apr-17 17:30N 35°22' E 139°53'0 0.0
2018-Apr-17 17:00N 35°22' E 139°53'0 0.0
2018-Apr-17 16:30N 35°22' E 139°53'0 1.0
2018-Apr-17 16:00N 35°22' E 139°52'0 0.0
2018-Apr-17 15:30N 35°22' E 139°52'0 0.9
2018-Apr-17 15:00N 35°22' E 139°52'2 5.0
2018-Apr-17 14:30N 35°24' E 139°49'1 1.8
2018-Apr-17 14:01N 35°24' E 139°49'0 0.3
2018-Apr-17 13:31N 35°24' E 139°48'0 0.7
2018-Apr-17 13:00N 35°24' E 139°49'0 0.7
2018-Apr-17 12:30N 35°24' E 139°49'2 4.6
2018-Apr-17 12:00N 35°23' E 139°51'1 2.0
2018-Apr-17 11:30N 35°22' E 139°52'2 3.1
2018-Apr-17 11:01N 35°23' E 139°51'1 2.6
2018-Apr-17 10:31N 35°21' E 139°51'2 3.9
2018-Apr-17 10:00N 35°23' E 139°49'0 0.3
2018-Apr-17 09:30N 35°23' E 139°49'2 3.9
2018-Apr-17 09:01N 35°24' E 139°48'611.0
2018-Apr-17 08:31N 35°25' E 139°41'0 0.7
2018-Apr-17 08:00N 35°25' E 139°41'0 0.0
2018-Apr-17 07:31N 35°25' E 139°41'0 0.1
2018-Apr-17 07:01N 35°25' E 139°41'0 0.0
2018-Apr-17 06:30N 35°25' E 139°41'0 0.2
2018-Apr-17 06:01N 35°25' E 139°41'0 0.4
2018-Apr-17 05:31N 35°25' E 139°41'0 0.2
2018-Apr-17 05:01N 35°25' E 139°41'0 0.0
2018-Apr-17 04:31N 35°25' E 139°41'0 0.1
2018-Apr-17 04:00N 35°25' E 139°41'0 0.0
2018-Apr-17 03:31N 35°25' E 139°41'0 0.0
2018-Apr-17 03:01N 35°25' E 139°41'0 0.0
2018-Apr-17 02:31N 35°25' E 139°41'0 0.0
2018-Apr-17 02:01N 35°25' E 139°41'0 0.0
2018-Apr-17 01:30N 35°25' E 139°41'0 0.0
2018-Apr-17 01:00N 35°25' E 139°41'0 0.0
2018-Apr-17 00:30N 35°25' E 139°41'0 0.0
2018-Apr-17 00:00N 35°25' E 139°41'0 0.0
2018-Apr-16 23:31N 35°25' E 139°41'1 1.9
2018-Apr-16 23:01N 35°26' E 139°42'1 0.1
2018-Apr-16 03:20N 35°25' E 139°41'0 0.6
2018-Apr-16 03:01N 35°25' E 139°41'0 0.0
2018-Apr-16 02:30N 35°25' E 139°41'0 0.0
2018-Apr-16 02:00N 35°25' E 139°41'0 0.0
2018-Apr-16 01:31N 35°25' E 139°41'2 3.0
2018-Apr-16 01:00N 35°24' E 139°41'3 5.6
2018-Apr-16 00:30N 35°25' E 139°44'3 5.2
2018-Apr-16 00:01N 35°27' E 139°47'3 6.1
2018-Apr-15 23:30N 35°29' E 139°49'3 5.6
2018-Apr-15 23:00N 35°30' E 139°53'3 5.6
2018-Apr-15 22:28N 35°29' E 139°56'2 4.6
2018-Apr-15 22:00N 35°28' E 139°58'1 1.5
2018-Apr-15 21:30N 35°27' E 139°57'3 5.5
2018-Apr-15 21:00N 35°28' E 139°54'612.0
2018-Apr-15 20:31N 35°25' E 139°48'510.7
2018-Apr-15 20:01N 35°25' E 139°41'0 0.3
2018-Apr-15 19:30N 35°25' E 139°41'0 0.0
2018-Apr-15 19:01N 35°25' E 139°41'0 0.0
2018-Apr-15 18:31N 35°25' E 139°41'0 0.0
2018-Apr-15 18:00N 35°25' E 139°41'0 0.0
2018-Apr-15 17:30N 35°25' E 139°41'0 0.0
2018-Apr-15 17:01N 35°25' E 139°41'0 0.0
2018-Apr-15 16:30N 35°25' E 139°41'0 0.0
2018-Apr-15 16:01N 35°25' E 139°41'0 0.0
2018-Apr-15 15:30N 35°25' E 139°41'0 0.0
2018-Apr-15 15:01N 35°25' E 139°41'0 0.0
2018-Apr-15 14:30N 35°25' E 139°41'0 0.0
2018-Apr-15 14:00N 35°25' E 139°41'0 0.0
2018-Apr-15 13:31N 35°25' E 139°41'0 0.0
2018-Apr-15 13:01N 35°25' E 139°41'0 0.0
2018-Apr-15 12:30N 35°25' E 139°41'0 0.0
2018-Apr-15 12:00N 35°25' E 139°41'0 0.0
2018-Apr-15 11:30N 35°25' E 139°41'0 0.0
2018-Apr-15 11:01N 35°25' E 139°41'0 0.0
2018-Apr-15 10:30N 35°25' E 139°41'0 0.0
2018-Apr-15 10:00N 35°25' E 139°41'0 0.0
2018-Apr-15 09:31N 35°25' E 139°41'0 0.0
2018-Apr-15 09:01N 35°25' E 139°41'0 0.0
2018-Apr-15 08:30N 35°25' E 139°41'0 0.0
2018-Apr-15 08:00N 35°25' E 139°41'0 0.0
2018-Apr-15 07:31N 35°25' E 139°41'0 0.0
2018-Apr-15 07:00N 35°25' E 139°41'0 0.0
2018-Apr-15 06:30N 35°25' E 139°41'1 2.1
2018-Apr-15 06:00N 35°24' E 139°42'3 5.2
2018-Apr-15 05:31N 35°24' E 139°39'0 0.6
2018-Apr-15 05:00N 35°24' E 139°39'0 0.0
2018-Apr-15 04:31N 35°24' E 139°39'0 0.0
2018-Apr-15 04:00N 35°24' E 139°39'0 0.0
2018-Apr-15 03:30N 35°24' E 139°39'0 0.0
2018-Apr-15 03:00N 35°24' E 139°39'0 0.0
2018-Apr-15 02:30N 35°24' E 139°39'0 0.0
2018-Apr-15 02:01N 35°24' E 139°39'0 0.0
2018-Apr-15 01:31N 35°24' E 139°39'0 0.0
2018-Apr-15 01:01N 35°24' E 139°39'0 0.0
2018-Apr-15 00:31N 35°24' E 139°39'0 0.0
2018-Apr-15 00:00N 35°24' E 139°39'0 0.0
2018-Apr-14 23:30N 35°24' E 139°39'0 0.0
2018-Apr-14 23:00N 35°24' E 139°39'0 0.0
2018-Apr-14 22:30N 35°24' E 139°39'0 0.0
2018-Apr-14 22:00N 35°24' E 139°39'0 0.1
2018-Apr-14 21:30N 35°24' E 139°39'0 0.0
2018-Apr-14 21:00N 35°24' E 139°39'0 0.0
2018-Apr-14 20:30N 35°24' E 139°39'0 0.0
2018-Apr-14 20:00N 35°24' E 139°39'0 0.0
2018-Apr-14 19:31N 35°24' E 139°39'0 0.0
2018-Apr-14 19:00N 35°24' E 139°39'0 0.0
2018-Apr-14 18:30N 35°24' E 139°39'0 0.0
2018-Apr-14 18:01N 35°24' E 139°39'0 0.0
2018-Apr-14 17:30N 35°24' E 139°39'0 0.0
2018-Apr-14 17:00N 35°24' E 139°39'0 0.0
2018-Apr-14 16:30N 35°24' E 139°39'0 0.0
2018-Apr-14 16:00N 35°24' E 139°39'1 2.4
2018-Apr-14 15:31N 35°24' E 139°40'2 0.1
2018-Apr-14 00:51N 35°25' E 139°41'2 4.6
2018-Apr-14 00:30N 35°23' E 139°41'2 4.7
2018-Apr-14 00:01N 35°21' E 139°40'4 7.4
2018-Apr-13 23:30N 35°25' E 139°41'0 0.0
2018-Apr-13 23:00N 35°25' E 139°41'0 0.0
2018-Apr-13 22:31N 35°25' E 139°41'0 0.0
2018-Apr-13 22:00N 35°25' E 139°41'0 0.0
2018-Apr-13 21:30N 35°25' E 139°41'0 0.0
2018-Apr-13 21:01N 35°25' E 139°41'0 0.0
2018-Apr-13 20:01N 35°25' E 139°41'0 0.0
2018-Apr-13 19:29N 35°25' E 139°41'0 0.0
2018-Apr-13 19:00N 35°25' E 139°41'0 0.0
2018-Apr-13 18:30N 35°25' E 139°41'0 0.0
2018-Apr-13 18:00N 35°25' E 139°41'0 0.0
2018-Apr-13 17:30N 35°25' E 139°41'0 0.0
2018-Apr-13 16:30N 35°25' E 139°41'0 0.0
2018-Apr-13 16:00N 35°25' E 139°41'0 0.0
2018-Apr-13 15:30N 35°25' E 139°41'0 0.0
2018-Apr-13 15:00N 35°25' E 139°41'0 0.0
2018-Apr-13 14:30N 35°25' E 139°41'0 0.0
2018-Apr-13 14:00N 35°25' E 139°41'0 0.0
2018-Apr-13 13:30N 35°25' E 139°41'0 0.0
2018-Apr-13 12:30N 35°25' E 139°41'0 0.0
2018-Apr-13 12:00N 35°25' E 139°41'0 0.0
2018-Apr-13 11:30N 35°25' E 139°41'0 0.0
2018-Apr-13 10:30N 35°25' E 139°41'0 0.0
2018-Apr-13 10:00N 35°25' E 139°41'0 0.0
2018-Apr-13 09:30N 35°25' E 139°41'0 0.0
2018-Apr-13 09:00N 35°25' E 139°41'0 0.0
2018-Apr-13 08:30N 35°25' E 139°41'5 9.5
2018-Apr-13 08:00N 35°20' E 139°40'2 4.2
2018-Apr-13 07:30N 35°22' E 139°41'3 5.3
2018-Apr-13 07:00N 35°23' E 139°44'3 6.1
2018-Apr-13 06:30N 35°21' E 139°48'2 4.4
2018-Apr-13 06:01N 35°20' E 139°49'0 0.2
2018-Apr-13 05:30N 35°20' E 139°50'0 0.4
2018-Apr-13 05:00N 35°20' E 139°50'0 0.0
2018-Apr-13 04:30N 35°20' E 139°50'0 0.1
2018-Apr-13 04:00N 35°20' E 139°50'0 0.0
2018-Apr-13 03:30N 35°20' E 139°50'0 0.0
2018-Apr-13 03:00N 35°20' E 139°50'0 0.0
2018-Apr-13 02:30N 35°20' E 139°50'0 0.0
2018-Apr-13 02:01N 35°20' E 139°50'0 0.2
2018-Apr-13 01:30N 35°20' E 139°50'2 3.5
2018-Apr-13 01:01N 35°21' E 139°49'1 2.7
2018-Apr-13 00:30N 35°21' E 139°51'0 0.7
2018-Apr-13 00:00N 35°21' E 139°51'0 0.2
2018-Apr-12 23:30N 35°22' E 139°51'0 0.0
2018-Apr-12 23:01N 35°22' E 139°51'0 0.1
2018-Apr-12 22:30N 35°21' E 139°51'1 1.5
2018-Apr-12 22:00N 35°22' E 139°50'2 3.7
2018-Apr-12 21:30N 35°22' E 139°48'1 2.5
2018-Apr-12 21:01N 35°22' E 139°47'1 2.7
2018-Apr-12 20:31N 35°22' E 139°48'3 6.8
2018-Apr-12 20:00N 35°22' E 139°52'0 0.0
2018-Apr-12 19:30N 35°22' E 139°52'0 0.0
2018-Apr-12 19:00N 35°22' E 139°52'0 0.1
2018-Apr-12 18:30N 35°22' E 139°52'0 0.0
2018-Apr-12 18:00N 35°22' E 139°52'0 0.0
2018-Apr-12 17:30N 35°22' E 139°52'0 0.0
2018-Apr-12 17:00N 35°22' E 139°52'0 0.0
2018-Apr-12 16:30N 35°22' E 139°52'0 0.0
2018-Apr-12 16:00N 35°22' E 139°52'0 0.0
2018-Apr-12 15:30N 35°22' E 139°52'0 0.0
2018-Apr-12 15:00N 35°22' E 139°52'0 0.0
2018-Apr-12 14:29N 35°22' E 139°52'0 0.0
2018-Apr-12 14:00N 35°22' E 139°52'0 0.1
2018-Apr-12 13:30N 35°22' E 139°52'0 0.9
2018-Apr-12 12:59N 35°22' E 139°52'0 0.2
2018-Apr-12 12:30N 35°22' E 139°52'1 1.4
2018-Apr-12 12:00N 35°22' E 139°51'3 5.5
2018-Apr-12 11:30N 35°24' E 139°49'1 1.5
2018-Apr-12 11:00N 35°24' E 139°48'2 4.9
2018-Apr-12 10:30N 35°22' E 139°49'0 0.0
2018-Apr-12 10:00N 35°22' E 139°49'0 0.0
2018-Apr-12 09:30N 35°22' E 139°49'0 0.0
2018-Apr-12 09:00N 35°22' E 139°49'0 0.0
2018-Apr-12 08:30N 35°22' E 139°49'0 0.0
2018-Apr-12 08:00N 35°22' E 139°49'0 0.0
2018-Apr-12 07:30N 35°22' E 139°49'2 4.6
2018-Apr-12 07:00N 35°22' E 139°46'2 4.8
2018-Apr-12 06:30N 35°23' E 139°44'3 5.4
2018-Apr-12 06:01N 35°23' E 139°40'2 4.0
2018-Apr-12 05:30N 35°23' E 139°38'0 0.3
2018-Apr-12 05:01N 35°23' E 139°38'1 2.4
2018-Apr-12 04:30N 35°23' E 139°39'0 0.1
2018-Apr-12 04:01N 35°23' E 139°39'0 0.0
2018-Apr-12 03:30N 35°23' E 139°39'0 0.0
2018-Apr-12 03:00N 35°23' E 139°39'0 0.0
2018-Apr-12 02:31N 35°23' E 139°39'0 0.0
2018-Apr-12 02:00N 35°23' E 139°39'0 0.1
2018-Apr-12 01:31N 35°23' E 139°39'0 0.0
2018-Apr-12 01:00N 35°23' E 139°39'1 1.9
2018-Apr-12 00:30N 35°23' E 139°41'  

Dump ship's entire track history